sensor_id;sensor_type;location;lat;lon;timestamp;P1;durP1;ratioP1;P2;durP2;ratioP2
17398;SDS011;8817;48.170;8.592;2023-04-15T00:01:41;7.00;;;6.20;;
17398;SDS011;8817;48.170;8.592;2023-04-15T00:04:09;6.30;;;5.80;;
17398;SDS011;8817;48.170;8.592;2023-04-15T00:06:35;6.47;;;5.87;;
17398;SDS011;8817;48.170;8.592;2023-04-15T00:09:05;6.63;;;5.77;;
17398;SDS011;8817;48.170;8.592;2023-04-15T00:11:31;6.10;;;5.70;;
17398;SDS011;8817;48.170;8.592;2023-04-15T00:13:58;6.00;;;5.50;;
17398;SDS011;8817;48.170;8.592;2023-04-15T00:16:25;6.40;;;5.90;;
17398;SDS011;8817;48.170;8.592;2023-04-15T00:18:52;6.17;;;5.67;;
17398;SDS011;8817;48.170;8.592;2023-04-15T00:21:19;7.40;;;5.67;;
17398;SDS011;8817;48.170;8.592;2023-04-15T00:23:46;5.87;;;5.37;;
17398;SDS011;8817;48.170;8.592;2023-04-15T00:26:17;5.60;;;5.27;;
17398;SDS011;8817;48.170;8.592;2023-04-15T00:28:44;5.23;;;5.00;;
17398;SDS011;8817;48.170;8.592;2023-04-15T00:31:11;5.60;;;5.30;;
17398;SDS011;8817;48.170;8.592;2023-04-15T00:33:39;5.43;;;5.03;;
17398;SDS011;8817;48.170;8.592;2023-04-15T00:36:06;5.57;;;5.17;;
17398;SDS011;8817;48.170;8.592;2023-04-15T00:38:34;5.10;;;4.90;;
17398;SDS011;8817;48.170;8.592;2023-04-15T00:41:01;7.37;;;5.80;;
17398;SDS011;8817;48.170;8.592;2023-04-15T00:43:30;9.60;;;6.83;;
17398;SDS011;8817;48.170;8.592;2023-04-15T00:45:57;7.00;;;6.50;;
17398;SDS011;8817;48.170;8.592;2023-04-15T00:48:26;7.20;;;6.50;;
17398;SDS011;8817;48.170;8.592;2023-04-15T00:50:53;7.17;;;6.30;;
17398;SDS011;8817;48.170;8.592;2023-04-15T00:53:20;6.70;;;6.10;;
17398;SDS011;8817;48.170;8.592;2023-04-15T00:55:47;6.90;;;6.03;;
17398;SDS011;8817;48.170;8.592;2023-04-15T00:58:15;7.10;;;6.40;;
17398;SDS011;8817;48.170;8.592;2023-04-15T01:00:43;6.80;;;5.80;;
17398;SDS011;8817;48.170;8.592;2023-04-15T01:03:10;6.00;;;5.50;;
17398;SDS011;8817;48.170;8.592;2023-04-15T01:05:38;10.27;;;6.70;;
17398;SDS011;8817;48.170;8.592;2023-04-15T01:08:05;10.00;;;6.70;;
17398;SDS011;8817;48.170;8.592;2023-04-15T01:10:32;6.17;;;5.57;;
17398;SDS011;8817;48.170;8.592;2023-04-15T01:12:59;6.77;;;6.07;;
17398;SDS011;8817;48.170;8.592;2023-04-15T01:15:26;7.03;;;5.53;;
17398;SDS011;8817;48.170;8.592;2023-04-15T01:17:54;5.67;;;5.20;;
17398;SDS011;8817;48.170;8.592;2023-04-15T01:20:23;5.70;;;5.43;;
17398;SDS011;8817;48.170;8.592;2023-04-15T01:22:51;5.30;;;5.10;;
17398;SDS011;8817;48.170;8.592;2023-04-15T01:25:26;5.53;;;5.23;;
17398;SDS011;8817;48.170;8.592;2023-04-15T01:27:56;7.13;;;5.30;;
17398;SDS011;8817;48.170;8.592;2023-04-15T01:30:24;5.70;;;5.40;;
17398;SDS011;8817;48.170;8.592;2023-04-15T01:32:52;6.37;;;5.93;;
17398;SDS011;8817;48.170;8.592;2023-04-15T01:35:19;5.60;;;5.20;;
17398;SDS011;8817;48.170;8.592;2023-04-15T01:37:46;5.57;;;5.37;;
17398;SDS011;8817;48.170;8.592;2023-04-15T01:40:14;5.73;;;5.43;;
17398;SDS011;8817;48.170;8.592;2023-04-15T01:42:42;5.63;;;5.37;;
17398;SDS011;8817;48.170;8.592;2023-04-15T01:45:10;5.50;;;5.30;;
17398;SDS011;8817;48.170;8.592;2023-04-15T01:47:37;5.40;;;5.10;;
17398;SDS011;8817;48.170;8.592;2023-04-15T01:50:04;5.50;;;5.30;;
17398;SDS011;8817;48.170;8.592;2023-04-15T01:52:32;5.30;;;5.10;;
17398;SDS011;8817;48.170;8.592;2023-04-15T01:54:59;5.33;;;5.10;;
17398;SDS011;8817;48.170;8.592;2023-04-15T01:57:27;5.30;;;5.10;;
17398;SDS011;8817;48.170;8.592;2023-04-15T01:59:55;7.20;;;5.77;;
17398;SDS011;8817;48.170;8.592;2023-04-15T02:02:22;6.20;;;5.70;;
17398;SDS011;8817;48.170;8.592;2023-04-15T02:04:49;5.80;;;5.43;;
17398;SDS011;8817;48.170;8.592;2023-04-15T02:07:16;5.90;;;5.50;;
17398;SDS011;8817;48.170;8.592;2023-04-15T02:09:43;5.40;;;5.20;;
17398;SDS011;8817;48.170;8.592;2023-04-15T02:12:10;6.13;;;5.73;;
17398;SDS011;8817;48.170;8.592;2023-04-15T02:14:37;5.37;;;5.07;;
17398;SDS011;8817;48.170;8.592;2023-04-15T02:17:06;5.50;;;5.30;;
17398;SDS011;8817;48.170;8.592;2023-04-15T02:19:32;5.13;;;4.90;;
17398;SDS011;8817;48.170;8.592;2023-04-15T02:21:59;5.20;;;4.70;;
17398;SDS011;8817;48.170;8.592;2023-04-15T02:24:26;5.40;;;5.20;;
17398;SDS011;8817;48.170;8.592;2023-04-15T02:26:54;5.40;;;5.10;;
17398;SDS011;8817;48.170;8.592;2023-04-15T02:29:21;5.33;;;5.13;;
17398;SDS011;8817;48.170;8.592;2023-04-15T02:31:48;5.10;;;4.90;;
17398;SDS011;8817;48.170;8.592;2023-04-15T02:34:16;6.73;;;5.40;;
17398;SDS011;8817;48.170;8.592;2023-04-15T02:36:43;5.93;;;5.53;;
17398;SDS011;8817;48.170;8.592;2023-04-15T02:39:11;5.40;;;5.20;;
17398;SDS011;8817;48.170;8.592;2023-04-15T02:41:40;6.07;;;5.57;;
17398;SDS011;8817;48.170;8.592;2023-04-15T02:44:07;5.70;;;5.20;;
17398;SDS011;8817;48.170;8.592;2023-04-15T02:46:37;5.33;;;5.13;;
17398;SDS011;8817;48.170;8.592;2023-04-15T02:49:05;5.63;;;5.30;;
17398;SDS011;8817;48.170;8.592;2023-04-15T02:51:33;5.43;;;5.20;;
17398;SDS011;8817;48.170;8.592;2023-04-15T02:54:01;5.30;;;5.10;;
17398;SDS011;8817;48.170;8.592;2023-04-15T02:56:27;5.60;;;5.13;;
17398;SDS011;8817;48.170;8.592;2023-04-15T02:58:55;5.27;;;5.07;;
17398;SDS011;8817;48.170;8.592;2023-04-15T03:01:22;5.43;;;5.07;;
17398;SDS011;8817;48.170;8.592;2023-04-15T03:03:50;5.53;;;5.23;;
17398;SDS011;8817;48.170;8.592;2023-04-15T03:06:17;5.30;;;5.10;;
17398;SDS011;8817;48.170;8.592;2023-04-15T03:08:45;5.10;;;4.90;;
17398;SDS011;8817;48.170;8.592;2023-04-15T03:11:12;5.40;;;5.20;;
17398;SDS011;8817;48.170;8.592;2023-04-15T03:13:40;5.20;;;5.00;;
17398;SDS011;8817;48.170;8.592;2023-04-15T03:16:07;5.20;;;5.00;;
17398;SDS011;8817;48.170;8.592;2023-04-15T03:18:34;5.80;;;5.10;;
17398;SDS011;8817;48.170;8.592;2023-04-15T03:21:01;5.60;;;5.30;;
17398;SDS011;8817;48.170;8.592;2023-04-15T03:23:29;5.43;;;5.03;;
17398;SDS011;8817;48.170;8.592;2023-04-15T03:26:00;4.90;;;4.80;;
17398;SDS011;8817;48.170;8.592;2023-04-15T03:28:27;5.20;;;5.00;;
17398;SDS011;8817;48.170;8.592;2023-04-15T03:30:54;5.23;;;4.93;;
17398;SDS011;8817;48.170;8.592;2023-04-15T03:33:21;5.63;;;4.90;;
17398;SDS011;8817;48.170;8.592;2023-04-15T03:35:49;5.33;;;5.03;;
17398;SDS011;8817;48.170;8.592;2023-04-15T03:38:16;5.17;;;4.97;;
17398;SDS011;8817;48.170;8.592;2023-04-15T03:40:43;5.00;;;4.90;;
17398;SDS011;8817;48.170;8.592;2023-04-15T03:43:12;5.10;;;4.90;;
17398;SDS011;8817;48.170;8.592;2023-04-15T03:45:39;5.50;;;5.20;;
17398;SDS011;8817;48.170;8.592;2023-04-15T03:48:06;5.33;;;5.10;;
17398;SDS011;8817;48.170;8.592;2023-04-15T03:50:32;5.20;;;5.00;;
17398;SDS011;8817;48.170;8.592;2023-04-15T03:52:59;12.00;;;7.80;;
17398;SDS011;8817;48.170;8.592;2023-04-15T03:55:26;16.37;;;8.80;;
17398;SDS011;8817;48.170;8.592;2023-04-15T03:57:53;13.37;;;8.00;;
17398;SDS011;8817;48.170;8.592;2023-04-15T04:00:21;7.23;;;6.20;;
17398;SDS011;8817;48.170;8.592;2023-04-15T04:02:48;9.83;;;6.60;;
17398;SDS011;8817;48.170;8.592;2023-04-15T04:05:15;6.77;;;6.00;;
17398;SDS011;8817;48.170;8.592;2023-04-15T04:07:42;6.07;;;5.47;;
17398;SDS011;8817;48.170;8.592;2023-04-15T04:10:09;5.23;;;5.03;;
17398;SDS011;8817;48.170;8.592;2023-04-15T04:12:36;5.43;;;5.10;;
17398;SDS011;8817;48.170;8.592;2023-04-15T04:15:03;5.30;;;5.10;;
17398;SDS011;8817;48.170;8.592;2023-04-15T04:20:00;5.27;;;5.07;;
17398;SDS011;8817;48.170;8.592;2023-04-15T04:22:27;5.33;;;5.10;;
17398;SDS011;8817;48.170;8.592;2023-04-15T04:24:54;5.20;;;5.00;;
17398;SDS011;8817;48.170;8.592;2023-04-15T04:27:23;7.30;;;4.97;;
17398;SDS011;8817;48.170;8.592;2023-04-15T04:29:50;5.27;;;5.07;;
17398;SDS011;8817;48.170;8.592;2023-04-15T04:32:17;5.37;;;5.10;;
17398;SDS011;8817;48.170;8.592;2023-04-15T04:34:45;5.20;;;5.00;;
17398;SDS011;8817;48.170;8.592;2023-04-15T04:37:12;5.37;;;5.07;;
17398;SDS011;8817;48.170;8.592;2023-04-15T04:39:39;5.23;;;4.93;;
17398;SDS011;8817;48.170;8.592;2023-04-15T04:42:06;5.50;;;5.27;;
17398;SDS011;8817;48.170;8.592;2023-04-15T04:44:33;5.63;;;5.13;;
17398;SDS011;8817;48.170;8.592;2023-04-15T04:47:00;5.67;;;5.27;;
17398;SDS011;8817;48.170;8.592;2023-04-15T04:49:27;4.93;;;4.83;;
17398;SDS011;8817;48.170;8.592;2023-04-15T04:51:55;5.33;;;5.03;;
17398;SDS011;8817;48.170;8.592;2023-04-15T04:54:22;5.50;;;5.30;;
17398;SDS011;8817;48.170;8.592;2023-04-15T04:56:49;5.83;;;5.53;;
17398;SDS011;8817;48.170;8.592;2023-04-15T04:59:16;5.33;;;5.07;;
17398;SDS011;8817;48.170;8.592;2023-04-15T05:01:43;5.40;;;5.20;;
17398;SDS011;8817;48.170;8.592;2023-04-15T05:04:10;5.50;;;5.20;;
17398;SDS011;8817;48.170;8.592;2023-04-15T05:06:37;5.10;;;4.90;;
17398;SDS011;8817;48.170;8.592;2023-04-15T05:09:05;5.00;;;4.80;;
17398;SDS011;8817;48.170;8.592;2023-04-15T05:11:32;5.50;;;5.10;;
17398;SDS011;8817;48.170;8.592;2023-04-15T05:13:59;5.07;;;4.97;;
17398;SDS011;8817;48.170;8.592;2023-04-15T05:16:26;5.07;;;4.97;;
17398;SDS011;8817;48.170;8.592;2023-04-15T05:18:53;5.13;;;4.93;;
17398;SDS011;8817;48.170;8.592;2023-04-15T05:21:20;4.73;;;4.63;;
17398;SDS011;8817;48.170;8.592;2023-04-15T05:23:47;5.40;;;5.20;;
17398;SDS011;8817;48.170;8.592;2023-04-15T05:26:16;4.80;;;4.70;;
17398;SDS011;8817;48.170;8.592;2023-04-15T05:28:42;5.30;;;5.10;;
17398;SDS011;8817;48.170;8.592;2023-04-15T05:31:10;5.10;;;5.00;;
17398;SDS011;8817;48.170;8.592;2023-04-15T05:33:37;5.73;;;5.23;;
17398;SDS011;8817;48.170;8.592;2023-04-15T05:36:04;6.10;;;5.50;;
17398;SDS011;8817;48.170;8.592;2023-04-15T05:38:32;17.53;;;5.50;;
17398;SDS011;8817;48.170;8.592;2023-04-15T05:40:59;19.87;;;5.60;;
17398;SDS011;8817;48.170;8.592;2023-04-15T05:43:27;6.47;;;5.87;;
17398;SDS011;8817;48.170;8.592;2023-04-15T05:45:54;8.23;;;5.30;;
17398;SDS011;8817;48.170;8.592;2023-04-15T05:48:21;5.60;;;5.23;;
17398;SDS011;8817;48.170;8.592;2023-04-15T05:50:48;5.33;;;5.13;;
17398;SDS011;8817;48.170;8.592;2023-04-15T05:53:15;4.97;;;4.70;;
17398;SDS011;8817;48.170;8.592;2023-04-15T05:55:42;10.63;;;4.90;;
17398;SDS011;8817;48.170;8.592;2023-04-15T05:58:09;11.00;;;4.80;;
17398;SDS011;8817;48.170;8.592;2023-04-15T06:00:37;18.00;;;5.00;;
17398;SDS011;8817;48.170;8.592;2023-04-15T06:03:04;5.10;;;4.80;;
17398;SDS011;8817;48.170;8.592;2023-04-15T06:05:31;5.43;;;5.10;;
17398;SDS011;8817;48.170;8.592;2023-04-15T06:07:58;5.10;;;4.90;;
17398;SDS011;8817;48.170;8.592;2023-04-15T06:10:25;9.13;;;5.20;;
17398;SDS011;8817;48.170;8.592;2023-04-15T06:12:52;5.83;;;4.73;;
17398;SDS011;8817;48.170;8.592;2023-04-15T06:15:19;5.10;;;4.90;;
17398;SDS011;8817;48.170;8.592;2023-04-15T06:17:47;12.83;;;5.20;;
17398;SDS011;8817;48.170;8.592;2023-04-15T06:20:14;5.10;;;4.90;;
17398;SDS011;8817;48.170;8.592;2023-04-15T06:22:41;5.27;;;4.97;;
17398;SDS011;8817;48.170;8.592;2023-04-15T06:25:08;5.30;;;5.10;;
17398;SDS011;8817;48.170;8.592;2023-04-15T06:27:35;5.67;;;5.30;;
17398;SDS011;8817;48.170;8.592;2023-04-15T06:30:02;5.40;;;5.10;;
17398;SDS011;8817;48.170;8.592;2023-04-15T06:32:30;5.10;;;4.90;;
17398;SDS011;8817;48.170;8.592;2023-04-15T06:34:59;5.70;;;5.23;;
17398;SDS011;8817;48.170;8.592;2023-04-15T06:37:26;5.20;;;5.00;;
17398;SDS011;8817;48.170;8.592;2023-04-15T06:39:53;5.23;;;5.03;;
17398;SDS011;8817;48.170;8.592;2023-04-15T06:42:20;5.00;;;4.80;;
17398;SDS011;8817;48.170;8.592;2023-04-15T06:44:47;5.40;;;4.97;;
17398;SDS011;8817;48.170;8.592;2023-04-15T06:47:15;5.87;;;5.57;;
17398;SDS011;8817;48.170;8.592;2023-04-15T06:49:41;5.90;;;5.50;;
17398;SDS011;8817;48.170;8.592;2023-04-15T06:52:10;5.77;;;5.47;;
17398;SDS011;8817;48.170;8.592;2023-04-15T06:54:37;5.67;;;5.33;;
17398;SDS011;8817;48.170;8.592;2023-04-15T06:57:04;5.50;;;5.20;;
17398;SDS011;8817;48.170;8.592;2023-04-15T06:59:31;5.37;;;5.07;;
17398;SDS011;8817;48.170;8.592;2023-04-15T07:01:58;5.80;;;5.40;;
17398;SDS011;8817;48.170;8.592;2023-04-15T07:04:25;6.00;;;5.67;;
17398;SDS011;8817;48.170;8.592;2023-04-15T07:06:52;6.90;;;6.20;;
17398;SDS011;8817;48.170;8.592;2023-04-15T07:09:21;6.90;;;5.60;;
17398;SDS011;8817;48.170;8.592;2023-04-15T07:11:48;5.50;;;5.20;;
17398;SDS011;8817;48.170;8.592;2023-04-15T07:14:15;5.50;;;5.20;;
17398;SDS011;8817;48.170;8.592;2023-04-15T07:16:42;5.70;;;5.30;;
17398;SDS011;8817;48.170;8.592;2023-04-15T07:19:09;4.93;;;4.77;;
17398;SDS011;8817;48.170;8.592;2023-04-15T07:21:36;4.93;;;4.73;;
17398;SDS011;8817;48.170;8.592;2023-04-15T07:24:03;5.10;;;4.90;;
17398;SDS011;8817;48.170;8.592;2023-04-15T07:26:32;4.70;;;4.53;;
17398;SDS011;8817;48.170;8.592;2023-04-15T07:28:59;4.80;;;4.50;;
17398;SDS011;8817;48.170;8.592;2023-04-15T07:31:26;5.10;;;4.90;;
17398;SDS011;8817;48.170;8.592;2023-04-15T07:33:52;5.33;;;5.03;;
17398;SDS011;8817;48.170;8.592;2023-04-15T07:36:19;4.60;;;4.50;;
17398;SDS011;8817;48.170;8.592;2023-04-15T07:38:46;5.07;;;4.73;;
17398;SDS011;8817;48.170;8.592;2023-04-15T07:41:13;4.80;;;4.60;;
17398;SDS011;8817;48.170;8.592;2023-04-15T07:43:41;4.97;;;4.77;;
17398;SDS011;8817;48.170;8.592;2023-04-15T07:46:08;4.80;;;4.50;;
17398;SDS011;8817;48.170;8.592;2023-04-15T07:48:36;5.30;;;4.97;;
17398;SDS011;8817;48.170;8.592;2023-04-15T07:51:03;4.90;;;4.70;;
17398;SDS011;8817;48.170;8.592;2023-04-15T07:53:30;4.50;;;4.37;;
17398;SDS011;8817;48.170;8.592;2023-04-15T07:55:57;4.90;;;4.70;;
17398;SDS011;8817;48.170;8.592;2023-04-15T07:58:24;5.00;;;4.80;;
17398;SDS011;8817;48.170;8.592;2023-04-15T08:00:52;4.57;;;4.40;;
17398;SDS011;8817;48.170;8.592;2023-04-15T08:03:20;4.70;;;4.50;;
17398;SDS011;8817;48.170;8.592;2023-04-15T08:05:47;4.50;;;4.40;;
17398;SDS011;8817;48.170;8.592;2023-04-15T08:08:14;4.30;;;4.20;;
17398;SDS011;8817;48.170;8.592;2023-04-15T08:10:41;4.73;;;4.40;;
17398;SDS011;8817;48.170;8.592;2023-04-15T08:13:08;4.20;;;4.10;;
17398;SDS011;8817;48.170;8.592;2023-04-15T08:15:35;4.30;;;4.20;;
17398;SDS011;8817;48.170;8.592;2023-04-15T08:18:03;4.40;;;4.10;;
17398;SDS011;8817;48.170;8.592;2023-04-15T08:20:30;4.60;;;4.40;;
17398;SDS011;8817;48.170;8.592;2023-04-15T08:22:57;4.23;;;4.13;;
17398;SDS011;8817;48.170;8.592;2023-04-15T08:25:24;4.50;;;4.40;;
17398;SDS011;8817;48.170;8.592;2023-04-15T08:27:51;4.20;;;4.10;;
17398;SDS011;8817;48.170;8.592;2023-04-15T08:30:20;4.87;;;4.57;;
17398;SDS011;8817;48.170;8.592;2023-04-15T08:32:48;4.70;;;4.30;;
17398;SDS011;8817;48.170;8.592;2023-04-15T08:35:17;4.30;;;4.10;;
17398;SDS011;8817;48.170;8.592;2023-04-15T08:37:44;4.67;;;4.37;;
17398;SDS011;8817;48.170;8.592;2023-04-15T08:40:11;4.87;;;4.60;;
17398;SDS011;8817;48.170;8.592;2023-04-15T08:42:40;4.40;;;4.30;;
17398;SDS011;8817;48.170;8.592;2023-04-15T08:45:09;4.87;;;4.37;;
17398;SDS011;8817;48.170;8.592;2023-04-15T08:47:37;4.80;;;4.33;;
17398;SDS011;8817;48.170;8.592;2023-04-15T08:50:05;4.38;;;4.18;;
17398;SDS011;8817;48.170;8.592;2023-04-15T08:52:37;4.70;;;4.43;;
17398;SDS011;8817;48.170;8.592;2023-04-15T08:55:05;3.92;;;3.85;;
17398;SDS011;8817;48.170;8.592;2023-04-15T08:57:34;4.30;;;4.00;;
17398;SDS011;8817;48.170;8.592;2023-04-15T09:00:02;4.47;;;4.28;;
17398;SDS011;8817;48.170;8.592;2023-04-15T09:02:30;4.45;;;4.20;;
17398;SDS011;8817;48.170;8.592;2023-04-15T09:04:57;4.60;;;4.40;;
17398;SDS011;8817;48.170;8.592;2023-04-15T09:07:24;4.53;;;4.28;;
17398;SDS011;8817;48.170;8.592;2023-04-15T09:09:52;4.10;;;4.00;;
17398;SDS011;8817;48.170;8.592;2023-04-15T09:12:19;4.40;;;4.30;;
17398;SDS011;8817;48.170;8.592;2023-04-15T09:14:46;4.38;;;4.20;;
17398;SDS011;8817;48.170;8.592;2023-04-15T09:17:14;4.40;;;4.20;;
17398;SDS011;8817;48.170;8.592;2023-04-15T09:19:44;5.05;;;4.20;;
17398;SDS011;8817;48.170;8.592;2023-04-15T09:22:11;4.38;;;4.20;;
17398;SDS011;8817;48.170;8.592;2023-04-15T09:24:39;4.65;;;4.32;;
17398;SDS011;8817;48.170;8.592;2023-04-15T09:27:08;4.18;;;4.00;;
17398;SDS011;8817;48.170;8.592;2023-04-15T09:29:36;4.50;;;4.30;;
17398;SDS011;8817;48.170;8.592;2023-04-15T09:32:10;4.45;;;4.13;;
17398;SDS011;8817;48.170;8.592;2023-04-15T09:34:38;4.10;;;4.00;;
17398;SDS011;8817;48.170;8.592;2023-04-15T09:37:05;4.35;;;4.00;;
17398;SDS011;8817;48.170;8.592;2023-04-15T09:39:43;4.82;;;4.43;;
17398;SDS011;8817;48.170;8.592;2023-04-15T09:42:13;4.47;;;4.22;;
17398;SDS011;8817;48.170;8.592;2023-04-15T09:44:41;4.30;;;4.10;;
17398;SDS011;8817;48.170;8.592;2023-04-15T09:47:08;4.05;;;3.95;;
17398;SDS011;8817;48.170;8.592;2023-04-15T09:49:43;3.97;;;3.88;;
17398;SDS011;8817;48.170;8.592;2023-04-15T09:52:21;4.40;;;4.20;;
17398;SDS011;8817;48.170;8.592;2023-04-15T09:54:48;4.28;;;4.18;;
17398;SDS011;8817;48.170;8.592;2023-04-15T09:57:20;4.55;;;4.20;;
17398;SDS011;8817;48.170;8.592;2023-04-15T09:59:48;4.18;;;4.07;;
17398;SDS011;8817;48.170;8.592;2023-04-15T10:02:15;4.47;;;4.28;;
17398;SDS011;8817;48.170;8.592;2023-04-15T10:04:44;4.30;;;4.10;;
17398;SDS011;8817;48.170;8.592;2023-04-15T10:07:13;4.35;;;4.05;;
17398;SDS011;8817;48.170;8.592;2023-04-15T10:09:42;4.20;;;4.10;;
17398;SDS011;8817;48.170;8.592;2023-04-15T10:12:11;4.60;;;4.20;;
17398;SDS011;8817;48.170;8.592;2023-04-15T10:14:39;4.60;;;4.20;;
17398;SDS011;8817;48.170;8.592;2023-04-15T10:17:08;4.25;;;4.05;;
17398;SDS011;8817;48.170;8.592;2023-04-15T10:19:37;4.10;;;4.00;;
17398;SDS011;8817;48.170;8.592;2023-04-15T10:22:04;4.32;;;4.10;;
17398;SDS011;8817;48.170;8.592;2023-04-15T10:24:32;4.10;;;3.90;;
17398;SDS011;8817;48.170;8.592;2023-04-15T10:27:00;4.10;;;4.00;;
17398;SDS011;8817;48.170;8.592;2023-04-15T10:29:29;3.90;;;3.85;;
17398;SDS011;8817;48.170;8.592;2023-04-15T10:31:58;4.30;;;4.00;;
17398;SDS011;8817;48.170;8.592;2023-04-15T10:34:26;4.00;;;3.80;;
17398;SDS011;8817;48.170;8.592;2023-04-15T10:36:54;4.93;;;4.63;;
17398;SDS011;8817;48.170;8.592;2023-04-15T10:39:38;7.00;;;4.20;;
17398;SDS011;8817;48.170;8.592;2023-04-15T10:42:07;5.50;;;4.03;;
17398;SDS011;8817;48.170;8.592;2023-04-15T10:44:35;4.00;;;3.90;;
17398;SDS011;8817;48.170;8.592;2023-04-15T10:47:10;4.07;;;3.97;;
17398;SDS011;8817;48.170;8.592;2023-04-15T10:49:47;4.20;;;3.90;;
17398;SDS011;8817;48.170;8.592;2023-04-15T10:52:15;4.20;;;4.00;;
17398;SDS011;8817;48.170;8.592;2023-04-15T10:54:47;4.13;;;3.92;;
17398;SDS011;8817;48.170;8.592;2023-04-15T10:57:15;4.50;;;4.18;;
17398;SDS011;8817;48.170;8.592;2023-04-15T11:00:00;4.05;;;3.95;;
17398;SDS011;8817;48.170;8.592;2023-04-15T11:02:40;4.20;;;4.10;;
17398;SDS011;8817;48.170;8.592;2023-04-15T11:05:09;4.20;;;4.00;;
17398;SDS011;8817;48.170;8.592;2023-04-15T11:07:36;4.07;;;3.97;;
17398;SDS011;8817;48.170;8.592;2023-04-15T11:13:26;4.35;;;4.18;;
17398;SDS011;8817;48.170;8.592;2023-04-15T11:15:58;4.07;;;3.88;;
17398;SDS011;8817;48.170;8.592;2023-04-15T11:18:28;4.10;;;3.90;;
17398;SDS011;8817;48.170;8.592;2023-04-15T11:20:57;4.18;;;3.95;;
17398;SDS011;8817;48.170;8.592;2023-04-15T11:23:26;4.00;;;3.90;;
17398;SDS011;8817;48.170;8.592;2023-04-15T11:25:55;3.92;;;3.90;;
17398;SDS011;8817;48.170;8.592;2023-04-15T11:28:24;4.32;;;4.13;;
17398;SDS011;8817;48.170;8.592;2023-04-15T11:30:52;5.40;;;4.22;;
17398;SDS011;8817;48.170;8.592;2023-04-15T11:33:19;4.20;;;4.00;;
17398;SDS011;8817;48.170;8.592;2023-04-15T11:35:49;4.05;;;3.90;;
17398;SDS011;8817;48.170;8.592;2023-04-15T11:38:16;3.97;;;3.88;;
17398;SDS011;8817;48.170;8.592;2023-04-15T11:40:43;3.70;;;3.70;;
17398;SDS011;8817;48.170;8.592;2023-04-15T11:43:11;4.13;;;3.92;;
17398;SDS011;8817;48.170;8.592;2023-04-15T11:45:46;4.50;;;4.22;;
17398;SDS011;8817;48.170;8.592;2023-04-15T11:48:15;4.28;;;4.00;;
17398;SDS011;8817;48.170;8.592;2023-04-15T11:50:42;4.20;;;4.00;;
17398;SDS011;8817;48.170;8.592;2023-04-15T11:53:11;4.50;;;4.20;;
17398;SDS011;8817;48.170;8.592;2023-04-15T11:55:42;4.30;;;4.20;;
17398;SDS011;8817;48.170;8.592;2023-04-15T11:58:11;4.75;;;4.07;;
17398;SDS011;8817;48.170;8.592;2023-04-15T12:00:40;4.18;;;3.97;;
17398;SDS011;8817;48.170;8.592;2023-04-15T12:03:18;4.65;;;4.00;;
17398;SDS011;8817;48.170;8.592;2023-04-15T12:06:03;4.72;;;4.43;;
17398;SDS011;8817;48.170;8.592;2023-04-15T12:08:49;4.15;;;4.05;;
17398;SDS011;8817;48.170;8.592;2023-04-15T12:11:18;4.45;;;4.15;;
17398;SDS011;8817;48.170;8.592;2023-04-15T12:13:46;4.20;;;4.10;;
17398;SDS011;8817;48.170;8.592;2023-04-15T12:16:15;4.32;;;4.13;;
17398;SDS011;8817;48.170;8.592;2023-04-15T12:18:44;4.13;;;3.95;;
17398;SDS011;8817;48.170;8.592;2023-04-15T12:21:11;3.90;;;3.80;;
17398;SDS011;8817;48.170;8.592;2023-04-15T12:23:40;4.07;;;3.97;;
17398;SDS011;8817;48.170;8.592;2023-04-15T12:26:15;4.07;;;3.97;;
17398;SDS011;8817;48.170;8.592;2023-04-15T12:28:42;4.32;;;4.10;;
17398;SDS011;8817;48.170;8.592;2023-04-15T12:31:09;4.18;;;4.07;;
17398;SDS011;8817;48.170;8.592;2023-04-15T12:33:37;6.15;;;4.10;;
17398;SDS011;8817;48.170;8.592;2023-04-15T12:36:04;4.63;;;4.40;;
17398;SDS011;8817;48.170;8.592;2023-04-15T12:38:32;4.28;;;4.10;;
17398;SDS011;8817;48.170;8.592;2023-04-15T12:40:59;4.38;;;4.15;;
17398;SDS011;8817;48.170;8.592;2023-04-15T12:43:27;8.65;;;6.05;;
17398;SDS011;8817;48.170;8.592;2023-04-15T12:45:54;5.03;;;4.57;;
17398;SDS011;8817;48.170;8.592;2023-04-15T12:48:21;4.15;;;4.05;;
17398;SDS011;8817;48.170;8.592;2023-04-15T12:50:48;4.63;;;4.30;;
17398;SDS011;8817;48.170;8.592;2023-04-15T12:53:15;4.82;;;4.43;;
17398;SDS011;8817;48.170;8.592;2023-04-15T12:55:42;4.63;;;4.40;;
17398;SDS011;8817;48.170;8.592;2023-04-15T12:58:09;4.32;;;4.22;;
17398;SDS011;8817;48.170;8.592;2023-04-15T13:00:37;4.60;;;4.20;;
17398;SDS011;8817;48.170;8.592;2023-04-15T13:03:04;4.90;;;4.60;;
17398;SDS011;8817;48.170;8.592;2023-04-15T13:05:31;4.38;;;4.15;;
17398;SDS011;8817;48.170;8.592;2023-04-15T13:07:58;4.70;;;4.30;;
17398;SDS011;8817;48.170;8.592;2023-04-15T13:10:25;4.18;;;4.07;;
17398;SDS011;8817;48.170;8.592;2023-04-15T13:12:53;4.93;;;4.63;;
17398;SDS011;8817;48.170;8.592;2023-04-15T13:15:20;4.78;;;4.57;;
17398;SDS011;8817;48.170;8.592;2023-04-15T13:17:49;4.90;;;4.70;;
17398;SDS011;8817;48.170;8.592;2023-04-15T13:20:16;4.40;;;4.20;;
17398;SDS011;8817;48.170;8.592;2023-04-15T13:22:43;4.28;;;4.18;;
17398;SDS011;8817;48.170;8.592;2023-04-15T13:25:09;4.93;;;4.53;;
17398;SDS011;8817;48.170;8.592;2023-04-15T13:27:36;4.30;;;4.10;;
17398;SDS011;8817;48.170;8.592;2023-04-15T13:30:04;4.38;;;4.28;;
17398;SDS011;8817;48.170;8.592;2023-04-15T13:32:31;4.60;;;4.40;;
17398;SDS011;8817;48.170;8.592;2023-04-15T13:34:59;5.25;;;4.95;;
17398;SDS011;8817;48.170;8.592;2023-04-15T13:37:26;5.00;;;4.60;;
17398;SDS011;8817;48.170;8.592;2023-04-15T13:39:54;5.18;;;4.95;;
17398;SDS011;8817;48.170;8.592;2023-04-15T13:42:21;4.95;;;4.63;;
17398;SDS011;8817;48.170;8.592;2023-04-15T13:44:48;4.78;;;4.53;;
17398;SDS011;8817;48.170;8.592;2023-04-15T13:47:16;4.30;;;4.20;;
17398;SDS011;8817;48.170;8.592;2023-04-15T13:49:44;4.32;;;4.03;;
17398;SDS011;8817;48.170;8.592;2023-04-15T13:52:12;4.90;;;4.50;;
17398;SDS011;8817;48.170;8.592;2023-04-15T13:54:39;4.80;;;4.40;;
17398;SDS011;8817;48.170;8.592;2023-04-15T13:57:06;6.80;;;5.35;;
17398;SDS011;8817;48.170;8.592;2023-04-15T13:59:33;4.90;;;4.60;;
17398;SDS011;8817;48.170;8.592;2023-04-15T14:02:00;5.03;;;4.35;;
17398;SDS011;8817;48.170;8.592;2023-04-15T14:04:27;4.30;;;4.10;;
17398;SDS011;8817;48.170;8.592;2023-04-15T14:06:54;4.43;;;4.22;;
17398;SDS011;8817;48.170;8.592;2023-04-15T14:09:23;4.30;;;4.10;;
17398;SDS011;8817;48.170;8.592;2023-04-15T14:11:50;4.53;;;4.20;;
17398;SDS011;8817;48.170;8.592;2023-04-15T14:14:17;4.50;;;4.30;;
17398;SDS011;8817;48.170;8.592;2023-04-15T14:16:44;4.50;;;4.30;;
17398;SDS011;8817;48.170;8.592;2023-04-15T14:19:11;4.53;;;4.22;;
17398;SDS011;8817;48.170;8.592;2023-04-15T14:21:38;4.50;;;4.20;;
17398;SDS011;8817;48.170;8.592;2023-04-15T14:24:05;4.70;;;4.50;;
17398;SDS011;8817;48.170;8.592;2023-04-15T14:26:33;4.88;;;4.57;;
17398;SDS011;8817;48.170;8.592;2023-04-15T14:29:00;4.82;;;4.38;;
17398;SDS011;8817;48.170;8.592;2023-04-15T14:31:27;4.65;;;4.30;;
17398;SDS011;8817;48.170;8.592;2023-04-15T14:33:54;4.78;;;4.38;;
17398;SDS011;8817;48.170;8.592;2023-04-15T14:36:21;13.85;;;7.10;;
17398;SDS011;8817;48.170;8.592;2023-04-15T14:38:48;9.82;;;6.00;;
17398;SDS011;8817;48.170;8.592;2023-04-15T14:41:15;6.05;;;5.63;;
17398;SDS011;8817;48.170;8.592;2023-04-15T14:43:43;5.50;;;5.15;;
17398;SDS011;8817;48.170;8.592;2023-04-15T14:46:10;4.78;;;4.57;;
17398;SDS011;8817;48.170;8.592;2023-04-15T14:48:38;4.82;;;4.53;;
17398;SDS011;8817;48.170;8.592;2023-04-15T14:51:05;4.82;;;4.63;;
17398;SDS011;8817;48.170;8.592;2023-04-15T14:53:32;5.03;;;4.60;;
17398;SDS011;8817;48.170;8.592;2023-04-15T14:55:59;4.53;;;4.43;;
17398;SDS011;8817;48.170;8.592;2023-04-15T14:58:26;4.88;;;4.68;;
17398;SDS011;8817;48.170;8.592;2023-04-15T15:00:54;7.82;;;4.20;;
17398;SDS011;8817;48.170;8.592;2023-04-15T15:03:22;4.30;;;4.20;;
17398;SDS011;8817;48.170;8.592;2023-04-15T15:05:48;4.45;;;4.05;;
17398;SDS011;8817;48.170;8.592;2023-04-15T15:08:15;4.63;;;4.43;;
17398;SDS011;8817;48.170;8.592;2023-04-15T15:10:42;4.32;;;4.22;;